createdAt,value
2022-12-03T00:02:00.333Z,-0.30
2022-12-03T00:04:27.094Z,-0.20
2022-12-03T00:06:53.851Z,-0.30
2022-12-03T00:09:20.524Z,-0.30
2022-12-03T00:11:47.429Z,-0.30
2022-12-03T00:14:14.147Z,-0.40
2022-12-03T00:16:40.764Z,-0.40
2022-12-03T00:19:07.731Z,-0.40
2022-12-03T00:21:34.845Z,-0.40
2022-12-03T00:24:01.507Z,-0.40
2022-12-03T00:26:28.141Z,-0.50
2022-12-03T00:28:54.995Z,-0.50
2022-12-03T00:31:23.443Z,-0.50
2022-12-03T00:33:51.767Z,-0.50
2022-12-03T00:36:18.739Z,-0.40
2022-12-03T00:38:45.722Z,-0.50
2022-12-03T00:41:13.019Z,-0.50
2022-12-03T00:43:39.954Z,-0.50
2022-12-03T00:46:06.727Z,-0.50
2022-12-03T00:48:33.385Z,-0.50
2022-12-03T00:51:00.006Z,-0.40
2022-12-03T00:53:26.881Z,-0.40
2022-12-03T00:55:53.566Z,-0.40
2022-12-03T00:58:20.271Z,-0.50
2022-12-03T01:00:46.999Z,-0.50
2022-12-03T01:03:13.702Z,-0.50
2022-12-03T01:05:40.386Z,-0.50
2022-12-03T01:08:07.119Z,-0.50
2022-12-03T01:10:33.808Z,-0.60
2022-12-03T01:13:00.500Z,-0.50
2022-12-03T01:15:27.193Z,-0.60
2022-12-03T01:17:54.438Z,-0.60
2022-12-03T01:20:21.273Z,-0.60
2022-12-03T01:22:47.939Z,-0.60
2022-12-03T01:25:14.999Z,-0.60
2022-12-03T01:27:41.570Z,-0.60
2022-12-03T01:30:08.830Z,-0.60
2022-12-03T01:32:35.466Z,-0.60
2022-12-03T01:35:02.081Z,-0.60
2022-12-03T01:37:28.682Z,-0.50
2022-12-03T01:39:55.447Z,-0.50
2022-12-03T01:42:28.064Z,-0.50
2022-12-03T01:44:57.469Z,-0.50
2022-12-03T01:47:36.006Z,-0.50
2022-12-03T01:50:14.922Z,-0.50
2022-12-03T01:52:42.156Z,-0.60
2022-12-03T01:55:14.851Z,-0.50
2022-12-03T01:57:45.963Z,-0.50
2022-12-03T02:00:22.150Z,-0.50
2022-12-03T02:02:52.471Z,-0.60
2022-12-03T02:05:23.493Z,-0.50
2022-12-03T02:07:50.716Z,-0.60
2022-12-03T02:10:20.709Z,-0.60
2022-12-03T02:12:58.722Z,-0.60
2022-12-03T02:15:25.794Z,-0.60
2022-12-03T02:17:53.109Z,-0.60
2022-12-03T02:20:20.371Z,-0.60
2022-12-03T02:23:10.680Z,-0.60
2022-12-03T02:25:38.444Z,-0.50
2022-12-03T02:28:07.727Z,-0.60
2022-12-03T02:30:34.882Z,-0.60
2022-12-03T02:33:02.208Z,-0.60
2022-12-03T02:35:33.618Z,-0.60
2022-12-03T02:38:24.504Z,-0.60
2022-12-03T02:40:54.983Z,-0.60
2022-12-03T02:43:22.607Z,-0.60
2022-12-03T02:45:55.464Z,-0.60
2022-12-03T02:48:33.457Z,-0.60
2022-12-03T02:51:03.751Z,-0.60
2022-12-03T02:53:42.319Z,-0.60
2022-12-03T02:56:10.607Z,-0.60
2022-12-03T02:58:37.952Z,-0.50
2022-12-03T03:01:05.173Z,-0.60
2022-12-03T03:03:32.789Z,-0.60
2022-12-03T03:06:01.718Z,-0.60
2022-12-03T03:08:30.522Z,-0.60
2022-12-03T03:11:00.927Z,-0.60
2022-12-03T03:13:29.344Z,-0.60
2022-12-03T03:15:56.758Z,-0.60
2022-12-03T03:18:23.842Z,-0.60
2022-12-03T03:20:50.933Z,-0.60
2022-12-03T03:23:20.024Z,-0.60
2022-12-03T03:25:58.572Z,-0.60
2022-12-03T03:28:26.548Z,-0.60
2022-12-03T03:30:53.659Z,-0.50
2022-12-03T03:33:20.517Z,-0.60
2022-12-03T03:35:48.707Z,-0.60
2022-12-03T03:38:18.661Z,-0.60
2022-12-03T03:40:46.353Z,-0.60
2022-12-03T03:43:13.445Z,-0.60
2022-12-03T03:45:40.350Z,-0.50
2022-12-03T03:48:07.193Z,-0.60
2022-12-03T03:50:34.640Z,-0.60
2022-12-03T03:53:02.577Z,-0.60
2022-12-03T03:55:30.140Z,-0.60
2022-12-03T03:57:57.019Z,-0.60
2022-12-03T04:00:23.761Z,-0.60
2022-12-03T04:02:51.928Z,-0.70
2022-12-03T04:05:21.272Z,-0.70
2022-12-03T04:07:48.443Z,-0.70
2022-12-03T04:10:36.302Z,-0.70
2022-12-03T04:13:03.593Z,-0.60
2022-12-03T04:15:31.040Z,-0.60
2022-12-03T04:18:16.525Z,-0.50
2022-12-03T04:20:43.162Z,-0.50
2022-12-03T04:23:09.923Z,-0.60
2022-12-03T04:25:55.327Z,-0.60
2022-12-03T04:28:40.922Z,-0.60
2022-12-03T04:31:27.679Z,-0.50
2022-12-03T04:34:13.129Z,-0.60
2022-12-03T04:36:39.888Z,-0.70
2022-12-03T04:39:06.600Z,-0.60
2022-12-03T04:41:33.194Z,-0.60
2022-12-03T04:44:18.572Z,-0.60
2022-12-03T04:46:45.203Z,-0.60
2022-12-03T04:49:11.940Z,-0.70
2022-12-03T04:51:38.565Z,-0.70
2022-12-03T04:54:05.334Z,-0.70
2022-12-03T04:56:32.025Z,-0.70
2022-12-03T04:58:58.749Z,-0.70
2022-12-03T05:01:25.465Z,-0.60
2022-12-03T05:03:52.125Z,-0.60
2022-12-03T05:06:18.868Z,-0.70
2022-12-03T05:08:45.501Z,-0.70
2022-12-03T05:11:12.131Z,-0.70
2022-12-03T05:13:38.853Z,-0.70
2022-12-03T05:16:05.668Z,-0.70
2022-12-03T05:18:32.307Z,-0.70
2022-12-03T05:20:59.066Z,-0.80
2022-12-03T05:23:25.867Z,-0.80
2022-12-03T05:25:52.522Z,-0.80
2022-12-03T05:28:22.252Z,-0.70
2022-12-03T05:30:48.915Z,-0.70
2022-12-03T05:33:15.910Z,-0.80
2022-12-03T05:35:42.796Z,-0.80
2022-12-03T05:38:09.705Z,-0.80
2022-12-03T05:40:36.335Z,-0.90
2022-12-03T05:43:03.179Z,-0.90
2022-12-03T05:45:35.798Z,-1.00
2022-12-03T05:48:03.575Z,-0.90
2022-12-03T05:50:32.621Z,-1.00
2022-12-03T05:53:00.285Z,-1.00
2022-12-03T05:55:27.490Z,-1.00
2022-12-03T05:57:54.288Z,-1.10
2022-12-03T06:00:26.552Z,-1.10
2022-12-03T06:02:54.154Z,-1.10
2022-12-03T06:05:21.487Z,-1.10
2022-12-03T06:07:50.323Z,-1.10
2022-12-03T06:10:21.090Z,-1.00
2022-12-03T06:12:47.719Z,-1.00
2022-12-03T06:15:15.181Z,-1.00
2022-12-03T06:17:42.235Z,-1.00
2022-12-03T06:20:13.532Z,-1.00
2022-12-03T06:22:40.305Z,-1.00
2022-12-03T06:25:07.672Z,-1.00
2022-12-03T06:27:34.361Z,-1.10
2022-12-03T06:30:01.051Z,-1.10
2022-12-03T06:32:27.673Z,-1.10
2022-12-03T06:34:54.765Z,-1.10
2022-12-03T06:37:21.635Z,-1.10
2022-12-03T06:39:48.283Z,-1.10
2022-12-03T06:42:14.989Z,-1.10
2022-12-03T06:44:41.632Z,-1.00
2022-12-03T06:47:08.243Z,-1.00
2022-12-03T06:49:34.925Z,-1.10
2022-12-03T06:52:01.705Z,-1.10
2022-12-03T06:54:28.459Z,-1.10
2022-12-03T06:56:55.129Z,-1.10
2022-12-03T06:59:21.718Z,-1.10
2022-12-03T07:01:48.436Z,-1.20
2022-12-03T07:04:15.077Z,-1.30
2022-12-03T07:06:41.704Z,-1.30
2022-12-03T07:09:08.326Z,-1.30
2022-12-03T07:11:40.538Z,-1.40
2022-12-03T07:14:09.103Z,-1.40
2022-12-03T07:16:36.460Z,-1.30
2022-12-03T07:19:05.042Z,-1.30
2022-12-03T07:21:31.655Z,-1.30
2022-12-03T07:23:58.359Z,-1.30
2022-12-03T07:26:24.965Z,-1.20
2022-12-03T07:28:51.764Z,-1.30
2022-12-03T07:31:18.589Z,-1.20
2022-12-03T07:33:45.329Z,-1.10
2022-12-03T07:36:12.155Z,-1.20
2022-12-03T07:38:38.754Z,-1.10
2022-12-03T07:41:05.556Z,-1.10
2022-12-03T07:43:32.505Z,-1.10
2022-12-03T07:45:59.193Z,-1.10
2022-12-03T07:48:25.904Z,-1.10
2022-12-03T07:50:52.662Z,-1.10
2022-12-03T07:53:19.559Z,-1.00
2022-12-03T07:55:46.249Z,-1.00
2022-12-03T07:58:12.910Z,-1.00
2022-12-03T08:00:39.819Z,-1.00
2022-12-03T08:03:06.457Z,-1.10
2022-12-03T08:05:33.163Z,-1.00
2022-12-03T08:07:59.929Z,-1.00
2022-12-03T08:10:26.749Z,-1.00
2022-12-03T08:12:53.991Z,-1.00
2022-12-03T08:15:25.970Z,-1.00
2022-12-03T08:17:58.876Z,-1.00
2022-12-03T08:20:33.539Z,-1.00
2022-12-03T08:23:03.782Z,-1.10
2022-12-03T08:25:33.147Z,-1.00
2022-12-03T08:28:07.747Z,-0.90
2022-12-03T08:30:37.656Z,-0.90
2022-12-03T08:33:17.091Z,-0.90
2022-12-03T08:35:50.255Z,-0.90
2022-12-03T08:38:21.321Z,-0.80
2022-12-03T08:40:51.135Z,-0.80
2022-12-03T08:43:27.751Z,-0.80
2022-12-03T08:45:56.707Z,-0.70
2022-12-03T08:48:36.445Z,-0.70
2022-12-03T08:51:14.631Z,-0.70
2022-12-03T08:53:50.977Z,-0.70
2022-12-03T08:56:26.364Z,-0.60
2022-12-03T08:58:59.235Z,-0.60
2022-12-03T09:01:43.114Z,-0.50
2022-12-03T09:04:26.642Z,-0.40
2022-12-03T09:06:54.431Z,-0.40
2022-12-03T09:09:22.809Z,-0.20
2022-12-03T09:11:50.650Z,-0.10
2022-12-03T09:14:18.899Z,0.10
2022-12-03T09:16:45.990Z,0.10
2022-12-03T09:19:12.690Z,0.00
2022-12-03T09:21:39.301Z,-0.10
2022-12-03T09:24:06.250Z,-0.10
2022-12-03T09:26:33.008Z,-0.10
2022-12-03T09:28:59.671Z,-0.10
2022-12-03T09:31:26.427Z,-0.20
2022-12-03T09:33:53.060Z,-0.30
2022-12-03T09:36:19.728Z,-0.30
2022-12-03T09:38:48.259Z,-0.20
2022-12-03T09:41:15.210Z,-0.30
2022-12-03T09:46:33.769Z,-0.20
2022-12-03T09:49:01.463Z,-0.30
2022-12-03T09:51:34.530Z,-0.40
2022-12-03T09:54:06.236Z,-0.30
2022-12-03T09:56:36.609Z,-0.30
2022-12-03T09:59:12.513Z,-0.30
2022-12-03T10:01:39.291Z,-0.40
2022-12-03T10:04:06.039Z,-0.40
2022-12-03T10:06:32.950Z,-0.40
2022-12-03T10:09:00.084Z,-0.40
2022-12-03T10:11:28.768Z,-0.40
2022-12-03T10:13:57.436Z,-0.40
2022-12-03T10:16:25.235Z,-0.40
2022-12-03T10:18:55.548Z,-0.30
2022-12-03T10:21:36.022Z,-0.20
2022-12-03T10:24:18.990Z,-0.20
2022-12-03T10:26:48.182Z,-0.30
2022-12-03T10:29:21.138Z,-0.20
2022-12-03T10:32:00.109Z,-0.20
2022-12-03T10:34:30.733Z,-0.10
2022-12-03T10:37:21.571Z,-0.20
2022-12-03T10:39:55.977Z,-0.20
2022-12-03T10:42:24.034Z,-0.10
2022-12-03T10:45:14.720Z,0.00
2022-12-03T10:47:42.625Z,0.00
2022-12-03T10:50:20.064Z,0.10
2022-12-03T10:52:47.994Z,0.10
2022-12-03T10:55:15.217Z,0.20
2022-12-03T10:57:45.637Z,0.30
2022-12-03T11:00:22.803Z,0.30
2022-12-03T11:02:56.444Z,0.10
2022-12-03T11:05:27.373Z,0.20
2022-12-03T11:07:54.483Z,0.10
2022-12-03T11:10:21.616Z,0.00
2022-12-03T11:13:26.258Z,0.00
2022-12-03T11:15:53.718Z,0.10
2022-12-03T11:18:38.639Z,0.00
2022-12-03T11:21:12.130Z,0.00
2022-12-03T11:23:45.094Z,-0.10
2022-12-03T11:26:18.444Z,-0.10
2022-12-03T11:28:45.649Z,0.00
2022-12-03T11:31:46.911Z,-0.10
2022-12-03T11:34:22.589Z,-0.10
2022-12-03T11:37:11.112Z,0.00
2022-12-03T11:39:50.647Z,0.10
2022-12-03T11:42:26.200Z,0.00
2022-12-03T11:45:05.313Z,0.10
2022-12-03T11:47:39.744Z,0.00
2022-12-03T11:50:21.664Z,0.00
2022-12-03T11:52:53.341Z,0.10
2022-12-03T11:55:23.054Z,0.10
2022-12-03T11:57:56.368Z,0.10
2022-12-03T12:00:24.653Z,0.10
2022-12-03T12:02:54.072Z,0.10
2022-12-03T12:05:25.608Z,0.10
2022-12-03T12:07:52.979Z,0.10
2022-12-03T12:10:41.058Z,0.00
2022-12-03T12:13:31.288Z,0.00
2022-12-03T12:16:02.903Z,-0.10
2022-12-03T12:18:40.397Z,-0.10
2022-12-03T12:21:47.683Z,-0.20
2022-12-03T12:24:46.829Z,-0.20
2022-12-03T12:27:37.919Z,-0.20
2022-12-03T12:30:08.796Z,-0.20
2022-12-03T12:32:50.049Z,-0.20
2022-12-03T12:35:24.351Z,-0.20
2022-12-03T12:38:02.388Z,-0.20
2022-12-03T12:40:31.344Z,-0.20
2022-12-03T12:43:04.148Z,-0.10
2022-12-03T12:45:37.217Z,-0.10
2022-12-03T12:48:19.587Z,-0.10
2022-12-03T12:50:48.238Z,0.00
2022-12-03T12:53:17.600Z,-0.10
2022-12-03T12:55:44.361Z,-0.10
2022-12-03T12:58:17.687Z,-0.10
2022-12-03T13:00:51.358Z,-0.10
2022-12-03T13:03:21.935Z,0.00
2022-12-03T13:05:50.583Z,0.00
2022-12-03T13:08:29.719Z,-0.10
2022-12-03T13:11:01.073Z,-0.10
2022-12-03T13:13:45.731Z,-0.10
2022-12-03T13:16:27.969Z,-0.10
2022-12-03T13:18:59.455Z,-0.20
2022-12-03T13:21:37.631Z,-0.20
2022-12-03T13:24:37.837Z,-0.10
2022-12-03T13:27:13.656Z,0.00
2022-12-03T13:29:40.477Z,0.00
2022-12-03T13:32:14.036Z,0.00
2022-12-03T13:34:41.083Z,-0.10
2022-12-03T13:37:25.183Z,-0.10
2022-12-03T13:39:55.107Z,-0.10
2022-12-03T13:42:41.780Z,-0.10
2022-12-03T13:45:25.127Z,-0.30
2022-12-03T13:48:13.894Z,-0.30
2022-12-03T13:50:46.080Z,-0.20
2022-12-03T13:53:33.202Z,-0.20
2022-12-03T13:56:28.664Z,-0.20
2022-12-03T13:58:57.295Z,-0.30
2022-12-03T14:01:24.440Z,-0.20
2022-12-03T14:03:51.264Z,-0.20
2022-12-03T14:06:18.017Z,-0.20
2022-12-03T14:08:45.033Z,-0.10
2022-12-03T14:11:30.952Z,-0.20
2022-12-03T14:13:57.661Z,-0.30
2022-12-03T14:16:24.605Z,-0.30
2022-12-03T14:18:51.516Z,-0.30
2022-12-03T14:21:18.187Z,-0.30
2022-12-03T14:23:44.952Z,-0.30
2022-12-03T14:26:11.555Z,-0.30
2022-12-03T14:28:38.244Z,-0.30
2022-12-03T14:31:04.928Z,-0.30
2022-12-03T14:33:31.717Z,-0.20
2022-12-03T14:35:58.801Z,-0.20
2022-12-03T14:38:25.429Z,-0.20
2022-12-03T14:40:52.128Z,-0.10
2022-12-03T14:43:18.814Z,-0.10
2022-12-03T14:45:45.863Z,-0.10
2022-12-03T14:48:12.565Z,-0.20
2022-12-03T14:50:39.261Z,-0.30
2022-12-03T14:53:05.943Z,-0.20
2022-12-03T14:55:32.959Z,-0.20
2022-12-03T14:57:59.711Z,-0.30
2022-12-03T15:00:26.421Z,-0.30
2022-12-03T15:02:53.174Z,-0.30
2022-12-03T15:05:24.921Z,-0.30
2022-12-03T15:07:55.155Z,-0.20
2022-12-03T15:10:21.830Z,-0.20
2022-12-03T15:12:48.697Z,-0.20
2022-12-03T15:15:15.403Z,-0.30
2022-12-03T15:17:45.605Z,-0.20
2022-12-03T15:20:12.824Z,-0.20
2022-12-03T15:22:39.554Z,-0.20
2022-12-03T15:25:07.767Z,-0.30
2022-12-03T15:27:34.599Z,-0.30
2022-12-03T15:30:03.378Z,-0.30
2022-12-03T15:32:30.010Z,-0.20
2022-12-03T15:34:56.785Z,-0.20
2022-12-03T15:37:27.648Z,-0.30
2022-12-03T15:39:54.765Z,-0.30
2022-12-03T15:42:24.712Z,-0.20
2022-12-03T15:44:51.444Z,-0.30
2022-12-03T15:47:18.389Z,-0.30
2022-12-03T15:49:45.007Z,-0.30
2022-12-03T15:52:11.775Z,-0.30
2022-12-03T15:54:38.907Z,-0.30
2022-12-03T15:57:05.612Z,-0.30
2022-12-03T15:59:32.280Z,-0.30
2022-12-03T16:01:59.202Z,-0.30
2022-12-03T16:04:26.013Z,-0.30
2022-12-03T16:06:52.959Z,-0.30
2022-12-03T16:09:25.271Z,-0.30
2022-12-03T16:11:53.838Z,-0.20
2022-12-03T16:14:20.705Z,-0.30
2022-12-03T16:16:47.364Z,-0.30
2022-12-03T16:19:14.093Z,-0.20
2022-12-03T16:21:40.685Z,-0.20
2022-12-03T16:24:07.428Z,-0.20
2022-12-03T16:26:34.169Z,-0.20
2022-12-03T16:29:00.801Z,-0.20
2022-12-03T16:31:27.454Z,-0.20
2022-12-03T16:33:54.759Z,-0.10
2022-12-03T16:36:21.390Z,-0.10
2022-12-03T16:38:48.001Z,-0.20
2022-12-03T16:41:14.632Z,-0.20
2022-12-03T16:43:41.342Z,-0.20
2022-12-03T16:46:14.432Z,-0.10
2022-12-03T16:48:41.769Z,-0.10
2022-12-03T16:51:08.938Z,-0.20
2022-12-03T16:53:35.682Z,-0.10
2022-12-03T16:56:02.770Z,-0.10
2022-12-03T16:58:29.539Z,-0.10
2022-12-03T17:00:56.142Z,-0.10
2022-12-03T17:03:22.815Z,-0.10
2022-12-03T17:05:49.797Z,-0.10
2022-12-03T17:08:17.052Z,-0.10
2022-12-03T17:10:44.471Z,-0.10
2022-12-03T17:13:11.344Z,-0.10
2022-12-03T17:15:39.013Z,0.00
2022-12-03T17:18:06.364Z,-0.10
2022-12-03T17:20:33.653Z,-0.10
2022-12-03T17:23:00.868Z,-0.10
2022-12-03T17:25:27.927Z,-0.10
2022-12-03T17:27:54.718Z,-0.10
2022-12-03T17:30:21.473Z,-0.10
2022-12-03T17:32:50.296Z,-0.10
2022-12-03T17:35:17.255Z,-0.20
2022-12-03T17:37:43.954Z,-0.20
2022-12-03T17:40:12.992Z,-0.20
2022-12-03T17:42:39.709Z,-0.10
2022-12-03T17:45:07.183Z,-0.10
2022-12-03T17:47:33.885Z,-0.10
2022-12-03T17:50:00.605Z,-0.10
2022-12-03T17:52:27.333Z,-0.10
2022-12-03T17:55:12.191Z,-0.20
2022-12-03T17:57:40.672Z,-0.10
2022-12-03T18:00:08.016Z,-0.10
2022-12-03T18:02:34.628Z,-0.10
2022-12-03T18:05:01.307Z,-0.10
2022-12-03T18:07:28.077Z,-0.10
2022-12-03T18:09:55.183Z,0.00
2022-12-03T18:12:22.193Z,-0.10
2022-12-03T18:14:48.944Z,-0.10
2022-12-03T18:17:15.534Z,-0.10
2022-12-03T18:19:42.199Z,-0.10
2022-12-03T18:22:09.219Z,-0.10
2022-12-03T18:24:35.971Z,-0.10
2022-12-03T18:27:02.784Z,-0.20
2022-12-03T18:29:29.556Z,-0.20
2022-12-03T18:31:56.351Z,-0.20
2022-12-03T18:34:23.119Z,-0.20
2022-12-03T18:36:50.063Z,-0.20
2022-12-03T18:39:32.877Z,-0.20
2022-12-03T18:41:59.527Z,-0.10
2022-12-03T18:44:26.526Z,-0.10
2022-12-03T18:46:54.466Z,-0.10
2022-12-03T18:49:21.768Z,-0.10
2022-12-03T18:51:48.966Z,-0.10
2022-12-03T18:54:16.490Z,-0.10
2022-12-03T18:56:43.257Z,-0.10
2022-12-03T18:59:11.237Z,-0.10
2022-12-03T19:01:37.960Z,-0.10
2022-12-03T19:04:04.783Z,0.00
2022-12-03T19:06:32.032Z,-0.10
2022-12-03T19:08:58.720Z,-0.10
2022-12-03T19:11:25.453Z,-0.10
2022-12-03T19:13:52.114Z,0.00
2022-12-03T19:16:19.122Z,0.00
2022-12-03T19:18:46.178Z,0.00
2022-12-03T19:21:15.519Z,0.00
2022-12-03T19:23:47.220Z,0.00
2022-12-03T19:26:25.837Z,0.00
2022-12-03T19:28:53.893Z,0.00
2022-12-03T19:31:21.201Z,0.00
2022-12-03T19:33:47.907Z,0.00
2022-12-03T19:36:26.130Z,0.00
2022-12-03T19:38:57.453Z,0.00
2022-12-03T19:41:30.734Z,0.00
2022-12-03T19:43:58.345Z,0.00
2022-12-03T19:46:28.603Z,0.00
2022-12-03T19:48:55.630Z,0.00
2022-12-03T19:51:37.487Z,0.10
2022-12-03T19:54:05.750Z,0.10
2022-12-03T19:56:32.557Z,0.00
2022-12-03T19:58:59.167Z,0.10
2022-12-03T20:01:29.032Z,0.10
2022-12-03T20:03:57.846Z,0.10
2022-12-03T20:06:27.155Z,0.10
2022-12-03T20:09:02.145Z,0.10
2022-12-03T20:11:31.059Z,0.00
2022-12-03T20:14:00.801Z,0.00
2022-12-03T20:16:28.154Z,-0.10
2022-12-03T20:19:00.245Z,-0.10
2022-12-03T20:21:28.781Z,-0.10
2022-12-03T20:23:55.532Z,0.00
2022-12-03T20:26:23.039Z,0.00
2022-12-03T20:28:49.707Z,0.00
2022-12-03T20:31:19.777Z,0.00
2022-12-03T20:33:50.974Z,0.10
2022-12-03T20:36:23.366Z,0.10
2022-12-03T20:38:55.019Z,0.10
2022-12-03T20:41:21.866Z,0.10
2022-12-03T20:43:48.987Z,0.20
2022-12-03T20:46:31.067Z,0.20
2022-12-03T20:48:58.699Z,0.20
2022-12-03T20:51:29.850Z,0.20
2022-12-03T20:53:57.684Z,0.10
2022-12-03T20:56:27.016Z,0.10
2022-12-03T20:58:54.060Z,0.10
2022-12-03T21:01:26.779Z,0.10
2022-12-03T21:03:56.062Z,0.10
2022-12-03T21:06:25.405Z,0.10
2022-12-03T21:08:56.220Z,0.10
2022-12-03T21:11:24.838Z,0.20
2022-12-03T21:13:52.570Z,0.20
2022-12-03T21:16:45.355Z,0.20
2022-12-03T21:19:11.313Z,0.20
2022-12-03T21:21:38.723Z,0.10
2022-12-03T21:24:05.664Z,0.20
2022-12-03T21:26:32.683Z,0.10
2022-12-03T21:28:59.436Z,0.10
2022-12-03T21:31:27.160Z,0.10
2022-12-03T21:33:55.233Z,0.10
2022-12-03T21:36:22.710Z,0.00
2022-12-03T21:38:49.368Z,0.10
2022-12-03T21:41:16.931Z,0.00
2022-12-03T21:43:44.128Z,0.00
2022-12-03T21:47:10.361Z,0.00
2022-12-03T21:49:01.337Z,0.00
2022-12-03T21:51:28.024Z,0.00
2022-12-03T21:53:54.775Z,0.00
2022-12-03T21:56:21.494Z,0.00
2022-12-03T21:58:48.199Z,0.00
2022-12-03T22:01:18.802Z,0.10
2022-12-03T22:03:45.926Z,0.10
2022-12-03T22:06:13.123Z,0.10
2022-12-03T22:08:40.227Z,0.10
2022-12-03T22:11:19.169Z,0.00
2022-12-03T22:13:46.458Z,0.00
2022-12-03T22:16:16.088Z,0.00
2022-12-03T22:18:43.173Z,0.00
2022-12-03T22:21:12.797Z,0.10
2022-12-03T22:23:40.525Z,0.10
2022-12-03T22:26:18.949Z,0.10
2022-12-03T22:28:47.350Z,0.10
2022-12-03T22:31:15.074Z,0.10
2022-12-03T22:33:42.428Z,0.10
2022-12-03T22:36:17.964Z,0.10
2022-12-03T22:38:47.121Z,0.10
2022-12-03T22:41:14.451Z,0.10
2022-12-03T22:43:41.537Z,0.00
2022-12-03T22:46:12.303Z,0.00
2022-12-03T22:48:40.131Z,0.00
2022-12-03T22:51:21.454Z,0.10
2022-12-03T22:53:53.193Z,0.10
2022-12-03T22:56:19.894Z,0.10
2022-12-03T22:58:46.572Z,0.10
2022-12-03T23:01:22.276Z,0.10
2022-12-03T23:03:49.237Z,0.10
2022-12-03T23:06:16.675Z,0.10
2022-12-03T23:08:43.439Z,0.10
2022-12-03T23:11:10.083Z,0.10
2022-12-03T23:13:36.774Z,0.10
2022-12-03T23:16:04.155Z,0.00
2022-12-03T23:18:31.180Z,0.00
2022-12-03T23:20:58.135Z,0.00
2022-12-03T23:23:26.673Z,0.00
2022-12-03T23:26:07.607Z,0.00
2022-12-03T23:28:36.157Z,0.00
2022-12-03T23:31:04.290Z,0.00
2022-12-03T23:33:36.691Z,0.00
2022-12-03T23:36:06.451Z,0.00
2022-12-03T23:38:33.242Z,0.00
2022-12-03T23:41:08.480Z,0.00
2022-12-03T23:43:35.256Z,0.10
2022-12-03T23:46:07.228Z,0.00
2022-12-03T23:48:34.088Z,0.00
2022-12-03T23:51:08.653Z,0.10
2022-12-03T23:53:36.632Z,0.10
2022-12-03T23:56:08.279Z,0.10
2022-12-03T23:58:35.235Z,0.10
